createdAt,value
2023-02-05T00:00:20.762Z,99843.47
2023-02-05T00:03:09.149Z,99848.69
2023-02-05T00:05:37.733Z,99849.19
2023-02-05T00:08:06.526Z,99851.50
2023-02-05T00:10:35.461Z,99852.41
2023-02-05T00:13:03.722Z,99856.19
2023-02-05T00:15:34.173Z,99855.56
2023-02-05T00:18:02.501Z,99855.16
2023-02-05T00:20:31.036Z,99859.44
2023-02-05T00:22:59.459Z,99866.03
2023-02-05T00:25:29.049Z,99858.03
2023-02-05T00:27:57.396Z,99863.91
2023-02-05T00:30:25.925Z,99873.50
2023-02-05T00:32:55.865Z,99871.41
2023-02-05T00:35:24.669Z,99860.00
2023-02-05T00:37:52.838Z,99857.38
2023-02-05T00:40:21.411Z,99862.31
2023-02-05T00:42:49.777Z,99867.78
2023-02-05T00:45:18.489Z,99863.16
2023-02-05T00:47:46.904Z,99871.78
2023-02-05T00:50:18.487Z,99866.06
2023-02-05T00:52:46.866Z,99864.31
2023-02-05T00:55:15.597Z,99861.63
2023-02-05T00:57:43.931Z,99864.50
2023-02-05T01:00:13.612Z,99864.38
2023-02-05T01:02:41.927Z,99867.53
2023-02-05T01:05:11.086Z,99860.47
2023-02-05T01:07:49.869Z,99863.00
2023-02-05T01:10:18.442Z,99867.94
2023-02-05T01:12:46.770Z,99859.56
2023-02-05T01:15:15.498Z,99867.78
2023-02-05T01:17:43.725Z,99862.78
2023-02-05T01:20:14.537Z,99868.97
2023-02-05T01:22:43.413Z,99866.44
2023-02-05T01:25:13.532Z,99872.81
2023-02-05T01:27:41.733Z,99876.34
2023-02-05T01:30:12.617Z,99873.97
2023-02-05T01:32:41.739Z,99879.66
2023-02-05T01:35:10.872Z,99879.97
2023-02-05T01:37:39.269Z,99871.75
2023-02-05T01:40:08.417Z,99874.66
2023-02-05T01:42:37.990Z,99868.88
2023-02-05T01:45:43.370Z,99870.25
2023-02-05T01:48:11.658Z,99863.84
2023-02-05T01:50:43.843Z,99870.00
2023-02-05T01:53:15.149Z,99869.91
2023-02-05T01:55:46.936Z,99869.47
2023-02-05T01:58:16.858Z,99869.03
2023-02-05T02:00:45.528Z,99873.06
2023-02-05T02:03:15.560Z,99876.94
2023-02-05T02:05:44.175Z,99879.94
2023-02-05T02:08:13.704Z,99873.97
2023-02-05T02:10:44.313Z,99871.53
2023-02-05T02:13:12.974Z,99882.94
2023-02-05T02:15:43.037Z,99884.47
2023-02-05T02:18:29.988Z,99883.69
2023-02-05T02:21:42.937Z,99883.13
2023-02-05T02:24:27.438Z,99879.13
2023-02-05T02:27:04.427Z,99881.72
2023-02-05T02:29:38.165Z,99882.84
2023-02-05T02:32:12.575Z,99882.06
2023-02-05T02:34:43.945Z,99883.00
2023-02-05T02:37:16.364Z,99886.72
2023-02-05T02:39:51.541Z,99884.78
2023-02-05T02:42:24.772Z,99892.50
2023-02-05T02:44:58.527Z,99886.47
2023-02-05T02:47:29.916Z,99894.59
2023-02-05T02:50:02.305Z,99896.19
2023-02-05T02:52:35.012Z,99894.41
2023-02-05T02:55:08.382Z,99890.75
2023-02-05T02:57:39.405Z,99893.19
2023-02-05T03:00:13.877Z,99894.53
2023-02-05T03:02:42.776Z,99888.38
2023-02-05T03:05:14.546Z,99891.84
2023-02-05T03:07:45.333Z,99898.91
2023-02-05T03:10:16.190Z,99897.16
2023-02-05T03:12:44.956Z,99896.38
2023-02-05T03:15:14.999Z,99891.84
2023-02-05T03:17:44.101Z,99894.97
2023-02-05T03:20:17.637Z,99892.78
2023-02-05T03:22:46.126Z,99891.72
2023-02-05T03:25:14.624Z,99886.63
2023-02-05T03:27:43.404Z,99890.91
2023-02-05T03:30:12.953Z,99891.19
2023-02-05T03:32:55.705Z,99886.47
2023-02-05T03:35:32.276Z,99889.25
2023-02-05T03:38:09.138Z,99888.47
2023-02-05T03:40:42.797Z,99892.78
2023-02-05T03:43:15.238Z,99893.22
2023-02-05T03:45:52.563Z,99899.63
2023-02-05T03:48:41.498Z,99896.75
2023-02-05T03:51:22.704Z,99894.38
2023-02-05T03:54:00.601Z,99886.91
2023-02-05T03:56:33.073Z,99894.56
2023-02-05T03:59:03.212Z,99898.22
2023-02-05T04:01:31.865Z,99900.13
2023-02-05T04:04:02.775Z,99901.09
2023-02-05T04:06:31.114Z,99897.56
2023-02-05T04:08:59.756Z,99902.41
2023-02-05T04:11:28.167Z,99901.38
2023-02-05T04:13:56.734Z,99902.97
2023-02-05T04:16:25.349Z,99908.31
2023-02-05T04:18:53.807Z,99910.41
2023-02-05T04:21:23.390Z,99903.06
2023-02-05T04:23:52.143Z,99908.22
2023-02-05T04:26:20.518Z,99908.25
2023-02-05T04:28:49.022Z,99906.91
2023-02-05T04:31:17.354Z,99910.13
2023-02-05T04:33:46.006Z,99908.78
2023-02-05T04:36:15.695Z,99914.31
2023-02-05T04:38:45.504Z,99921.66
2023-02-05T04:41:13.924Z,99928.94
2023-02-05T04:43:42.532Z,99934.00
2023-02-05T04:46:11.328Z,99927.25
2023-02-05T04:48:40.614Z,99933.47
2023-02-05T04:51:10.313Z,99940.66
2023-02-05T04:53:39.584Z,99940.88
2023-02-05T04:56:11.596Z,99944.31
2023-02-05T04:58:40.704Z,99946.22
2023-02-05T05:01:15.684Z,99957.09
2023-02-05T05:03:44.999Z,99948.22
2023-02-05T05:06:14.161Z,99947.91
2023-02-05T05:08:43.133Z,99956.28
2023-02-05T05:11:14.699Z,99962.44
2023-02-05T05:13:44.436Z,99959.16
2023-02-05T05:16:13.968Z,99955.28
2023-02-05T05:18:42.842Z,99951.94
2023-02-05T05:21:11.282Z,99964.53
2023-02-05T05:23:40.315Z,99963.88
2023-02-05T05:26:09.693Z,99957.19
2023-02-05T05:28:39.983Z,99968.41
2023-02-05T05:31:09.822Z,99965.91
2023-02-05T05:33:38.929Z,99968.13
2023-02-05T05:36:08.732Z,99971.47
2023-02-05T05:38:37.566Z,99973.00
2023-02-05T05:41:24.131Z,99969.78
2023-02-05T05:43:55.433Z,99977.69
2023-02-05T05:46:26.009Z,99979.53
2023-02-05T05:48:55.852Z,99979.38
2023-02-05T05:51:25.645Z,99982.72
2023-02-05T05:53:54.301Z,99993.97
2023-02-05T05:56:22.931Z,100001.69
2023-02-05T05:58:53.303Z,100012.28
2023-02-05T06:01:23.063Z,100011.25
2023-02-05T06:03:52.237Z,100016.34
2023-02-05T06:06:20.544Z,100018.66
2023-02-05T06:08:49.209Z,100017.13
2023-02-05T06:11:17.650Z,100021.16
2023-02-05T06:13:46.633Z,100008.06
2023-02-05T06:16:16.727Z,100022.53
2023-02-05T06:18:45.248Z,100019.50
2023-02-05T06:21:13.716Z,100028.72
2023-02-05T06:23:42.333Z,100024.56
2023-02-05T06:26:10.547Z,100036.66
2023-02-05T06:28:39.203Z,100037.84
2023-02-05T06:31:07.649Z,100042.38
2023-02-05T06:33:37.779Z,100051.13
2023-02-05T06:36:07.279Z,100052.59
2023-02-05T06:38:35.924Z,100059.66
2023-02-05T06:41:04.811Z,100054.78
2023-02-05T06:43:33.386Z,100054.78
2023-02-05T06:46:01.877Z,100055.06
2023-02-05T06:48:30.860Z,100050.69
2023-02-05T06:51:00.509Z,100051.25
2023-02-05T06:53:29.234Z,100053.53
2023-02-05T06:55:59.392Z,100048.53
2023-02-05T06:58:28.286Z,100051.31
2023-02-05T07:00:56.556Z,100051.56
2023-02-05T07:03:25.953Z,100046.41
2023-02-05T07:05:54.181Z,100045.19
2023-02-05T07:08:24.171Z,100053.81
2023-02-05T07:10:52.485Z,100053.13
2023-02-05T07:13:21.011Z,100061.47
2023-02-05T07:15:49.912Z,100053.78
2023-02-05T07:18:18.501Z,100061.81
2023-02-05T07:20:46.834Z,100060.81
2023-02-05T07:23:15.659Z,100062.38
2023-02-05T07:25:46.626Z,100068.50
2023-02-05T07:28:15.170Z,100068.25
2023-02-05T07:30:43.828Z,100075.34
2023-02-05T07:33:12.421Z,100074.53
2023-02-05T07:35:40.741Z,100078.44
2023-02-05T07:38:10.952Z,100083.03
2023-02-05T07:40:39.477Z,100089.81
2023-02-05T07:43:09.423Z,100085.91
2023-02-05T07:45:37.798Z,100091.66
2023-02-05T07:48:06.878Z,100092.47
2023-02-05T07:50:35.964Z,100089.22
2023-02-05T07:53:04.621Z,100090.16
2023-02-05T07:55:33.149Z,100078.13
2023-02-05T07:58:02.178Z,100086.25
2023-02-05T08:00:32.394Z,100089.50
2023-02-05T08:03:01.140Z,100093.25
2023-02-05T08:05:30.373Z,100089.84
2023-02-05T08:07:59.190Z,100090.16
2023-02-05T08:10:27.692Z,100097.00
2023-02-05T08:12:56.326Z,100111.94
2023-02-05T08:15:24.900Z,100107.56
2023-02-05T08:17:54.948Z,100116.03
2023-02-05T08:20:23.412Z,100119.88
2023-02-05T08:22:52.125Z,100126.03
2023-02-05T08:25:20.760Z,100133.66
2023-02-05T08:27:49.508Z,100135.84
2023-02-05T08:30:21.729Z,100132.19
2023-02-05T08:32:51.271Z,100133.13
2023-02-05T08:35:20.911Z,100140.31
2023-02-05T08:37:49.498Z,100135.97
2023-02-05T08:40:18.228Z,100135.50
2023-02-05T08:42:48.663Z,100140.34
2023-02-05T08:45:17.462Z,100131.81
2023-02-05T08:47:46.193Z,100148.31
2023-02-05T08:50:15.789Z,100150.59
2023-02-05T08:52:46.156Z,100142.94
2023-02-05T08:55:15.473Z,100150.69
2023-02-05T08:57:44.211Z,100151.19
2023-02-05T09:00:13.845Z,100148.84
2023-02-05T09:02:43.138Z,100151.97
2023-02-05T09:05:12.027Z,100148.91
2023-02-05T09:07:41.607Z,100148.97
2023-02-05T09:10:12.582Z,100149.84
2023-02-05T09:12:41.134Z,100154.09
2023-02-05T09:15:10.677Z,100156.44
2023-02-05T09:17:39.250Z,100157.22
2023-02-05T09:20:08.526Z,100162.63
2023-02-05T09:22:38.734Z,100155.59
2023-02-05T09:25:07.809Z,100160.59
2023-02-05T09:27:37.715Z,100162.81
2023-02-05T09:30:06.494Z,100167.84
2023-02-05T09:32:35.397Z,100167.47
2023-02-05T09:35:03.874Z,100185.59
2023-02-05T09:37:32.526Z,100174.44
2023-02-05T09:42:59.232Z,100178.78
2023-02-05T09:45:38.835Z,100185.75
2023-02-05T09:48:28.467Z,100181.59
2023-02-05T09:50:58.261Z,100190.56
2023-02-05T09:53:30.005Z,100184.00
2023-02-05T09:55:59.716Z,100180.59
2023-02-05T09:58:32.241Z,100182.06
2023-02-05T10:01:03.403Z,100178.09
2023-02-05T10:03:37.473Z,100177.31
2023-02-05T10:06:14.754Z,100176.16
2023-02-05T10:08:52.016Z,100157.78
2023-02-05T10:11:24.823Z,100164.81
2023-02-05T10:14:03.102Z,100160.03
2023-02-05T10:17:12.170Z,100175.16
2023-02-05T10:19:50.499Z,100168.09
2023-02-05T10:22:24.781Z,100170.59
2023-02-05T10:25:26.029Z,100166.69
2023-02-05T10:27:59.414Z,100171.81
2023-02-05T10:30:32.016Z,100165.22
2023-02-05T10:33:02.335Z,100166.09
2023-02-05T10:35:37.335Z,100160.94
2023-02-05T10:38:11.839Z,100166.25
2023-02-05T10:40:44.148Z,100169.38
2023-02-05T10:43:20.500Z,100171.06
2023-02-05T10:45:50.556Z,100157.78
2023-02-05T10:48:36.478Z,100157.47
2023-02-05T10:51:07.244Z,100151.00
2023-02-05T10:53:36.892Z,100146.63
2023-02-05T10:56:06.377Z,100138.56
2023-02-05T10:58:40.208Z,100135.25
2023-02-05T11:01:15.200Z,100126.69
2023-02-05T11:03:49.702Z,100128.50
2023-02-05T11:06:19.231Z,100127.78
2023-02-05T11:08:47.560Z,100132.41
2023-02-05T11:11:24.812Z,100121.97
2023-02-05T11:13:55.821Z,100122.16
2023-02-05T11:16:25.628Z,100121.75
2023-02-05T11:18:58.977Z,100130.59
2023-02-05T11:21:48.298Z,100123.88
2023-02-05T11:24:25.712Z,100130.28
2023-02-05T11:27:29.434Z,100129.09
2023-02-05T11:30:00.877Z,100127.00
2023-02-05T11:32:40.221Z,100124.81
2023-02-05T11:35:23.247Z,100119.50
2023-02-05T11:38:01.573Z,100126.78
2023-02-05T11:40:32.572Z,100117.50
2023-02-05T11:43:05.489Z,100116.75
2023-02-05T11:45:35.701Z,100110.28
2023-02-05T11:48:07.995Z,100121.50
2023-02-05T11:50:36.743Z,100109.78
2023-02-05T11:53:17.372Z,100112.28
2023-02-05T11:55:46.036Z,100107.97
2023-02-05T11:58:31.570Z,100101.75
2023-02-05T12:01:06.867Z,100105.31
2023-02-05T12:03:37.013Z,100108.81
2023-02-05T12:06:17.136Z,100111.75
2023-02-05T12:08:48.848Z,100106.28
2023-02-05T12:12:04.306Z,100107.81
2023-02-05T12:14:39.635Z,100105.88
2023-02-05T12:17:19.264Z,100107.28
2023-02-05T12:19:53.391Z,100105.63
2023-02-05T12:22:30.306Z,100108.59
2023-02-05T12:25:11.206Z,100116.69
2023-02-05T12:27:51.290Z,100108.97
2023-02-05T12:30:38.684Z,100117.41
2023-02-05T12:33:40.242Z,100123.78
2023-02-05T12:36:13.371Z,100115.50
2023-02-05T12:38:50.680Z,100111.94
2023-02-05T12:41:27.609Z,100113.19
2023-02-05T12:44:00.626Z,100111.31
2023-02-05T12:46:47.841Z,100109.31
2023-02-05T12:49:36.051Z,100104.84
2023-02-05T12:52:18.834Z,100106.50
2023-02-05T12:54:58.212Z,100109.16
2023-02-05T12:57:30.462Z,100109.59
2023-02-05T13:00:02.440Z,100110.09
2023-02-05T13:02:35.986Z,100109.00
2023-02-05T13:05:16.455Z,100114.91
2023-02-05T13:07:48.799Z,100111.16
2023-02-05T13:10:20.170Z,100110.69
2023-02-05T13:12:49.046Z,100107.38
2023-02-05T13:15:20.553Z,100112.56
2023-02-05T13:17:58.392Z,100115.59
2023-02-05T13:20:43.619Z,100113.91
2023-02-05T13:23:31.964Z,100116.94
2023-02-05T13:26:18.796Z,100107.34
2023-02-05T13:28:49.808Z,100106.28
2023-02-05T13:31:23.078Z,100111.75
2023-02-05T13:33:53.300Z,100108.94
2023-02-05T13:36:43.929Z,100114.16
2023-02-05T13:39:34.057Z,100103.56
2023-02-05T13:42:16.870Z,100114.84
2023-02-05T13:45:17.513Z,100109.84
2023-02-05T13:48:08.290Z,100112.06
2023-02-05T13:51:10.344Z,100110.34
2023-02-05T13:53:48.452Z,100110.84
2023-02-05T13:56:36.758Z,100109.63
2023-02-05T13:59:06.816Z,100109.75
2023-02-05T14:01:44.826Z,100116.56
2023-02-05T14:04:21.645Z,100112.88
2023-02-05T14:06:58.239Z,100100.16
2023-02-05T14:09:32.403Z,100098.94
2023-02-05T14:15:25.151Z,100087.84
2023-02-05T14:17:55.964Z,100099.44
2023-02-05T14:20:37.042Z,100101.09
2023-02-05T14:23:06.363Z,100101.31
2023-02-05T14:26:10.497Z,100102.94
2023-02-05T14:28:48.919Z,100096.91
2023-02-05T14:31:50.379Z,100099.28
2023-02-05T14:37:32.626Z,100105.75
2023-02-05T14:40:24.565Z,100103.16
2023-02-05T14:43:08.441Z,100096.88
2023-02-05T14:45:44.211Z,100096.47
2023-02-05T14:48:21.216Z,100100.47
2023-02-05T14:51:02.373Z,100103.16
2023-02-05T14:53:33.060Z,100107.44
2023-02-05T14:56:02.284Z,100102.53
2023-02-05T14:58:33.143Z,100106.25
2023-02-05T15:01:42.004Z,100106.41
2023-02-05T15:04:30.540Z,100104.13
2023-02-05T15:07:01.218Z,100111.22
2023-02-05T15:09:40.573Z,100108.03
2023-02-05T15:12:50.147Z,100108.66
2023-02-05T15:15:31.060Z,100111.94
2023-02-05T15:18:04.745Z,100109.56
2023-02-05T15:20:36.424Z,100117.97
2023-02-05T15:23:19.523Z,100112.25
2023-02-05T15:25:55.092Z,100111.53
2023-02-05T15:28:28.981Z,100115.84
2023-02-05T15:31:18.822Z,100115.53
2023-02-05T15:33:54.817Z,100113.41
2023-02-05T15:36:31.634Z,100113.41
2023-02-05T15:39:08.792Z,100114.34
2023-02-05T15:41:38.995Z,100112.81
2023-02-05T15:44:21.593Z,100114.25
2023-02-05T15:46:50.748Z,100113.72
2023-02-05T15:49:19.450Z,100125.47
2023-02-05T15:51:49.010Z,100128.41
2023-02-05T15:54:21.289Z,100128.63
2023-02-05T15:56:53.723Z,100125.44
2023-02-05T15:59:25.284Z,100123.03
2023-02-05T16:02:01.550Z,100134.44
2023-02-05T16:04:32.384Z,100130.84
2023-02-05T16:07:00.983Z,100127.78
2023-02-05T16:09:31.793Z,100128.22
2023-02-05T16:12:13.721Z,100122.44
2023-02-05T16:14:43.879Z,100122.75
2023-02-05T16:17:16.703Z,100121.44
2023-02-05T16:19:49.614Z,100128.06
2023-02-05T16:22:36.585Z,100122.63
2023-02-05T16:25:09.217Z,100123.31
2023-02-05T16:27:42.351Z,100143.78
2023-02-05T16:30:19.005Z,100145.00
2023-02-05T16:32:47.802Z,100149.28
2023-02-05T16:35:24.593Z,100151.50
2023-02-05T16:37:53.198Z,100151.78
2023-02-05T16:40:32.025Z,100149.09
2023-02-05T16:43:01.835Z,100157.66
2023-02-05T16:45:31.538Z,100157.94
2023-02-05T16:48:23.546Z,100166.81
2023-02-05T16:50:53.947Z,100171.88
2023-02-05T16:53:26.476Z,100167.25
2023-02-05T16:55:58.547Z,100175.91
2023-02-05T16:58:28.785Z,100174.47
2023-02-05T17:00:59.700Z,100173.56
2023-02-05T17:03:30.717Z,100177.84
2023-02-05T17:06:02.108Z,100174.88
2023-02-05T17:08:33.280Z,100170.69
2023-02-05T17:11:04.697Z,100176.81
2023-02-05T17:13:38.776Z,100175.66
2023-02-05T17:16:28.584Z,100178.22
2023-02-05T17:19:00.593Z,100179.47
2023-02-05T17:21:33.801Z,100174.78
2023-02-05T17:24:04.890Z,100169.19
2023-02-05T17:26:35.974Z,100172.19
2023-02-05T17:29:07.634Z,100171.44
2023-02-05T17:31:38.510Z,100169.56
2023-02-05T17:34:07.642Z,100178.88
2023-02-05T17:36:36.238Z,100172.22
2023-02-05T17:39:05.076Z,100178.16
2023-02-05T17:41:54.447Z,100175.91
2023-02-05T17:44:24.315Z,100180.03
2023-02-05T17:46:54.288Z,100190.31
2023-02-05T17:49:23.063Z,100184.97
2023-02-05T17:51:51.744Z,100180.03
2023-02-05T17:54:23.070Z,100182.13
2023-02-05T17:56:51.926Z,100190.34
2023-02-05T17:59:21.745Z,100179.84
2023-02-05T18:01:51.978Z,100186.19
2023-02-05T18:04:20.689Z,100189.97
2023-02-05T18:06:50.048Z,100197.47
2023-02-05T18:09:20.122Z,100200.47
2023-02-05T18:11:48.797Z,100189.31
2023-02-05T18:14:17.147Z,100202.34
2023-02-05T18:16:45.981Z,100212.94
2023-02-05T18:19:15.966Z,100204.16
2023-02-05T18:21:47.132Z,100210.72
2023-02-05T18:24:15.517Z,100213.41
2023-02-05T18:26:44.144Z,100223.19
2023-02-05T18:29:12.505Z,100220.69
2023-02-05T18:31:41.021Z,100223.19
2023-02-05T18:34:09.438Z,100219.88
2023-02-05T18:36:39.373Z,100223.31
2023-02-05T18:39:09.864Z,100218.03
2023-02-05T18:41:39.189Z,100219.00
2023-02-05T18:44:07.456Z,100215.66
2023-02-05T18:46:36.066Z,100214.91
2023-02-05T18:49:04.440Z,100210.53
2023-02-05T18:51:33.006Z,100214.28
2023-02-05T18:54:02.963Z,100221.81
2023-02-05T18:56:31.602Z,100223.16
2023-02-05T18:59:01.120Z,100228.19
2023-02-05T19:01:30.744Z,100228.19
2023-02-05T19:04:02.280Z,100227.28
2023-02-05T19:06:31.407Z,100227.88
2023-02-05T19:09:00.624Z,100228.88
2023-02-05T19:11:32.296Z,100222.03
2023-02-05T19:14:02.918Z,100234.03
2023-02-05T19:16:33.703Z,100242.97
2023-02-05T19:19:02.389Z,100234.63
2023-02-05T19:21:32.083Z,100238.69
2023-02-05T19:24:05.531Z,100236.41
2023-02-05T19:26:37.287Z,100229.78
2023-02-05T19:29:07.978Z,100232.03
2023-02-05T19:31:37.944Z,100228.03
2023-02-05T19:34:06.696Z,100229.09
2023-02-05T19:36:35.411Z,100229.91
2023-02-05T19:39:05.848Z,100225.19
2023-02-05T19:41:36.967Z,100225.19
2023-02-05T19:44:07.558Z,100217.75
2023-02-05T19:46:38.594Z,100227.81
2023-02-05T19:49:11.757Z,100232.13
2023-02-05T19:51:40.446Z,100230.28
2023-02-05T19:54:08.744Z,100221.84
2023-02-05T19:56:39.732Z,100228.28
2023-02-05T19:59:08.506Z,100226.88
2023-02-05T20:01:39.213Z,100215.88
2023-02-05T20:04:10.219Z,100221.34
2023-02-05T20:06:38.888Z,100222.44
2023-02-05T20:09:10.585Z,100223.38
2023-02-05T20:11:41.741Z,100231.41
2023-02-05T20:14:13.225Z,100237.66
2023-02-05T20:16:42.449Z,100240.50
2023-02-05T20:19:12.846Z,100244.81
2023-02-05T20:21:41.585Z,100251.00
2023-02-05T20:24:10.097Z,100256.91
2023-02-05T20:26:40.548Z,100250.19
2023-02-05T20:29:26.876Z,100249.66
2023-02-05T20:31:57.713Z,100249.00
2023-02-05T20:34:30.619Z,100248.75
2023-02-05T20:37:00.734Z,100258.22
2023-02-05T20:39:30.342Z,100259.75
2023-02-05T20:42:00.814Z,100263.25
2023-02-05T20:44:31.214Z,100267.31
2023-02-05T20:46:59.840Z,100272.59
2023-02-05T20:49:28.393Z,100269.41
2023-02-05T20:51:57.169Z,100265.22
2023-02-05T20:54:25.859Z,100275.16
2023-02-05T20:56:57.122Z,100274.31
2023-02-05T20:59:27.116Z,100271.44
2023-02-05T21:01:56.584Z,100277.16
2023-02-05T21:04:25.717Z,100288.41
2023-02-05T21:06:54.665Z,100297.16
2023-02-05T21:09:23.687Z,100292.31
2023-02-05T21:11:55.745Z,100296.47
2023-02-05T21:14:24.577Z,100291.78
2023-02-05T21:16:54.907Z,100297.50
2023-02-05T21:19:24.126Z,100293.41
2023-02-05T21:21:53.086Z,100299.09
2023-02-05T21:24:21.926Z,100299.44
2023-02-05T21:26:51.022Z,100308.53
2023-02-05T21:29:21.082Z,100315.63
2023-02-05T21:31:53.094Z,100313.81
2023-02-05T21:34:25.294Z,100324.22
2023-02-05T21:36:55.138Z,100337.13
2023-02-05T21:39:25.645Z,100334.28
2023-02-05T21:41:54.807Z,100337.63
2023-02-05T21:44:23.363Z,100336.50
2023-02-05T21:46:53.379Z,100340.03
2023-02-05T21:49:23.086Z,100343.09
2023-02-05T21:51:53.419Z,100345.44
2023-02-05T21:54:25.454Z,100342.75
2023-02-05T21:56:55.094Z,100348.66
2023-02-05T21:59:23.311Z,100351.00
2023-02-05T22:01:52.272Z,100351.50
2023-02-05T22:04:20.560Z,100345.78
2023-02-05T22:06:51.744Z,100352.56
2023-02-05T22:09:20.931Z,100359.59
2023-02-05T22:11:50.641Z,100359.81
2023-02-05T22:14:18.832Z,100362.94
2023-02-05T22:16:47.451Z,100363.09
2023-02-05T22:19:15.767Z,100361.38
2023-02-05T22:21:44.735Z,100355.63
2023-02-05T22:24:16.380Z,100362.94
2023-02-05T22:26:45.946Z,100358.03
2023-02-05T22:29:15.734Z,100356.38
2023-02-05T22:31:45.468Z,100359.81
2023-02-05T22:34:14.205Z,100360.13
2023-02-05T22:36:43.694Z,100362.72
2023-02-05T22:39:12.248Z,100376.88
2023-02-05T22:41:43.064Z,100375.47
2023-02-05T22:44:12.562Z,100376.22
2023-02-05T22:46:42.634Z,100372.53
2023-02-05T22:49:12.638Z,100376.88
2023-02-05T22:51:41.686Z,100384.06
2023-02-05T22:54:13.297Z,100373.31
2023-02-05T22:56:43.119Z,100379.84
2023-02-05T22:59:11.674Z,100384.19
2023-02-05T23:01:40.349Z,100384.03
2023-02-05T23:04:12.292Z,100387.13
2023-02-05T23:06:42.835Z,100377.53
2023-02-05T23:09:12.712Z,100375.31
2023-02-05T23:11:46.113Z,100383.34
2023-02-05T23:14:15.720Z,100394.63
2023-02-05T23:16:46.829Z,100395.97
2023-02-05T23:19:19.178Z,100397.88
2023-02-05T23:21:48.800Z,100398.31
2023-02-05T23:24:17.827Z,100389.63
2023-02-05T23:26:50.968Z,100387.81
2023-02-05T23:29:19.374Z,100378.00
2023-02-05T23:31:48.321Z,100390.00
2023-02-05T23:34:16.489Z,100388.44
2023-02-05T23:36:44.957Z,100393.00
2023-02-05T23:39:13.384Z,100386.44
2023-02-05T23:41:41.838Z,100387.88
2023-02-05T23:44:14.276Z,100388.59
2023-02-05T23:46:43.762Z,100378.81
2023-02-05T23:49:12.642Z,100385.22
2023-02-05T23:51:42.185Z,100378.56
2023-02-05T23:54:12.367Z,100378.75
2023-02-05T23:56:41.242Z,100369.50
2023-02-05T23:59:14.190Z,100374.72
